createdAt,value
2019-03-04T00:02:00.168Z,3.95
2019-03-04T00:04:29.654Z,4.12
2019-03-04T00:06:59.267Z,3.42
2019-03-04T00:09:28.829Z,3.87
2019-03-04T00:11:58.407Z,3.37
2019-03-04T00:14:28.810Z,3.42
2019-03-04T00:16:58.421Z,3.47
2019-03-04T00:19:27.883Z,3.35
2019-03-04T00:21:57.406Z,3.05
2019-03-04T00:24:27.056Z,3.65
2019-03-04T00:26:56.551Z,3.30
2019-03-04T00:29:26.041Z,3.20
2019-03-04T00:31:55.617Z,2.92
2019-03-04T00:34:25.129Z,3.02
2019-03-04T00:36:54.624Z,2.87
2019-03-04T00:39:24.093Z,3.25
2019-03-04T00:41:53.752Z,2.62
2019-03-04T00:44:23.182Z,2.70
2019-03-04T00:46:54.147Z,2.72
2019-03-04T00:49:23.740Z,2.62
2019-03-04T00:51:53.263Z,2.65
2019-03-04T00:54:22.758Z,2.40
2019-03-04T00:56:52.224Z,2.33
2019-03-04T00:59:21.758Z,2.62
2019-03-04T01:01:51.289Z,2.27
2019-03-04T01:04:23.035Z,2.45
2019-03-04T01:06:52.564Z,2.52
2019-03-04T01:09:22.011Z,2.30
2019-03-04T01:11:51.467Z,1.90
2019-03-04T01:14:21.009Z,2.00
2019-03-04T01:16:50.454Z,2.17
2019-03-04T01:19:20.049Z,2.30
2019-03-04T01:21:49.529Z,1.85
2019-03-04T01:24:19.019Z,1.92
2019-03-04T01:26:48.612Z,2.10
2019-03-04T01:29:18.477Z,2.60
2019-03-04T01:31:48.331Z,2.22
2019-03-04T01:34:17.874Z,1.77
2019-03-04T01:36:47.386Z,1.85
2019-03-04T01:39:16.904Z,1.62
2019-03-04T01:41:46.512Z,1.98
2019-03-04T01:44:15.984Z,2.00
2019-03-04T01:46:45.585Z,1.72
2019-03-04T01:49:15.129Z,1.50
2019-03-04T01:51:44.652Z,1.85
2019-03-04T01:54:14.181Z,1.55
2019-03-04T01:56:43.685Z,1.90
2019-03-04T01:59:13.310Z,1.72
2019-03-04T02:01:43.214Z,1.65
2019-03-04T02:04:12.724Z,1.47
2019-03-04T02:06:42.214Z,1.98
2019-03-04T02:09:11.748Z,2.20
2019-03-04T02:11:41.328Z,2.00
2019-03-04T02:14:10.766Z,1.60
2019-03-04T02:16:40.232Z,1.45
2019-03-04T02:19:09.775Z,1.30
2019-03-04T02:21:39.248Z,1.30
2019-03-04T02:24:26.285Z,1.45
2019-03-04T02:26:57.693Z,1.62
2019-03-04T02:29:27.247Z,2.00
2019-03-04T02:31:56.749Z,1.62
2019-03-04T02:34:26.282Z,1.67
2019-03-04T02:36:55.744Z,1.67
2019-03-04T02:39:25.431Z,1.50
2019-03-04T02:41:54.881Z,1.60
2019-03-04T02:44:24.383Z,1.67
2019-03-04T02:46:54.278Z,1.70
2019-03-04T02:49:23.746Z,1.52
2019-03-04T02:51:53.186Z,1.40
2019-03-04T02:54:22.842Z,1.40
2019-03-04T02:56:52.328Z,1.45
2019-03-04T02:59:21.790Z,1.45
2019-03-04T03:01:51.304Z,1.22
2019-03-04T03:04:20.789Z,1.40
2019-03-04T03:06:50.254Z,1.10
2019-03-04T03:09:19.857Z,1.45
2019-03-04T03:11:49.348Z,1.42
2019-03-04T03:14:19.897Z,1.40
2019-03-04T03:16:49.671Z,1.55
2019-03-04T03:19:19.223Z,1.47
2019-03-04T03:21:48.722Z,1.32
2019-03-04T03:24:18.230Z,1.30
2019-03-04T03:26:47.746Z,1.32
2019-03-04T03:29:17.586Z,1.22
2019-03-04T03:31:48.189Z,1.10
2019-03-04T03:34:19.957Z,1.30
2019-03-04T03:36:49.929Z,1.30
2019-03-04T03:39:19.482Z,1.32
2019-03-04T03:41:48.967Z,1.62
2019-03-04T03:44:18.874Z,1.05
2019-03-04T03:46:48.440Z,1.22
2019-03-04T03:49:17.936Z,1.25
2019-03-04T03:51:47.458Z,1.35
2019-03-04T03:54:16.976Z,1.30
2019-03-04T03:56:46.787Z,1.25
2019-03-04T03:59:16.291Z,1.55
2019-03-04T04:01:47.591Z,1.37
2019-03-04T04:04:17.193Z,1.37
2019-03-04T04:06:47.036Z,1.32
2019-03-04T04:09:16.500Z,1.45
2019-03-04T04:11:46.041Z,1.12
2019-03-04T04:14:15.657Z,1.20
2019-03-04T04:16:45.148Z,1.22
2019-03-04T04:19:14.613Z,1.32
2019-03-04T04:21:44.552Z,1.10
2019-03-04T04:24:14.446Z,1.10
2019-03-04T04:26:43.968Z,1.30
2019-03-04T04:29:14.501Z,1.60
2019-03-04T04:31:44.913Z,1.22
2019-03-04T04:34:14.457Z,1.52
2019-03-04T04:36:43.955Z,1.25
2019-03-04T04:39:13.488Z,1.20
2019-03-04T04:41:42.978Z,1.12
2019-03-04T04:44:12.514Z,1.30
2019-03-04T04:46:55.973Z,1.20
2019-03-04T04:49:27.593Z,1.10
2019-03-04T04:51:57.101Z,1.15
2019-03-04T04:54:26.625Z,1.35
2019-03-04T04:56:56.137Z,1.07
2019-03-04T04:59:25.614Z,1.50
2019-03-04T05:01:55.150Z,1.20
2019-03-04T05:04:24.651Z,1.50
2019-03-04T05:06:54.133Z,1.40
2019-03-04T05:09:23.632Z,1.07
2019-03-04T05:11:53.160Z,1.37
2019-03-04T05:14:22.633Z,1.22
2019-03-04T05:16:52.258Z,1.27
2019-03-04T05:19:21.746Z,1.30
2019-03-04T05:21:51.304Z,0.90
2019-03-04T05:24:20.807Z,1.57
2019-03-04T05:26:51.418Z,1.20
2019-03-04T05:29:20.897Z,1.20
2019-03-04T05:31:50.464Z,1.30
2019-03-04T05:34:19.949Z,1.22
2019-03-04T05:36:49.403Z,1.32
2019-03-04T05:39:18.879Z,0.98
2019-03-04T05:41:48.417Z,1.10
2019-03-04T05:44:17.908Z,1.30
2019-03-04T05:46:47.423Z,1.22
2019-03-04T05:49:17.432Z,1.55
2019-03-04T05:51:46.921Z,1.10
2019-03-04T05:54:16.395Z,1.47
2019-03-04T05:56:46.052Z,1.20
2019-03-04T05:59:19.702Z,1.32
2019-03-04T06:02:00.642Z,1.37
2019-03-04T06:04:30.110Z,1.50
2019-03-04T06:07:07.518Z,1.35
2019-03-04T06:09:37.047Z,1.40
2019-03-04T06:12:06.628Z,1.10
2019-03-04T06:14:36.270Z,1.02
2019-03-04T06:17:05.810Z,1.27
2019-03-04T06:19:35.447Z,1.42
2019-03-04T06:22:05.348Z,1.15
2019-03-04T06:24:34.843Z,1.40
2019-03-04T06:27:04.329Z,1.20
2019-03-04T06:29:33.887Z,1.50
2019-03-04T06:32:03.366Z,1.27
2019-03-04T06:34:32.886Z,1.20
2019-03-04T06:37:02.397Z,1.10
2019-03-04T06:39:31.877Z,1.00
2019-03-04T06:42:01.759Z,1.02
2019-03-04T06:44:31.257Z,1.15
2019-03-04T06:47:00.729Z,1.10
2019-03-04T06:49:30.215Z,1.25
2019-03-04T06:51:59.923Z,1.12
2019-03-04T06:55:31.436Z,1.30
2019-03-04T06:58:00.921Z,1.27
2019-03-04T07:00:49.765Z,1.47
2019-03-04T07:03:42.842Z,1.30
2019-03-04T07:06:12.394Z,1.50
2019-03-04T07:09:18.226Z,1.65
2019-03-04T07:11:48.980Z,1.75
2019-03-04T07:14:18.544Z,1.75
2019-03-04T07:16:49.289Z,1.95
2019-03-04T07:19:22.945Z,1.15
2019-03-04T07:21:52.484Z,2.05
2019-03-04T07:24:22.024Z,2.00
2019-03-04T07:26:51.490Z,2.12
2019-03-04T07:29:21.062Z,1.95
2019-03-04T07:31:51.421Z,1.62
2019-03-04T07:34:20.934Z,2.17
2019-03-04T07:36:50.392Z,1.67
2019-03-04T07:39:20.821Z,2.25
2019-03-04T07:41:52.248Z,2.62
2019-03-04T07:44:22.582Z,2.33
2019-03-04T07:46:52.011Z,3.05
2019-03-04T07:49:21.560Z,3.05
2019-03-04T07:51:51.587Z,3.17
2019-03-04T07:54:21.076Z,2.92
2019-03-04T07:56:50.573Z,2.42
2019-03-04T07:59:20.176Z,3.00
2019-03-04T08:01:49.637Z,2.75
2019-03-04T08:04:19.178Z,3.00
2019-03-04T08:06:50.902Z,2.50
2019-03-04T08:09:49.931Z,2.67
2019-03-04T08:12:54.677Z,2.83
2019-03-04T08:15:24.376Z,3.20
2019-03-04T08:17:53.859Z,2.90
2019-03-04T08:20:23.325Z,2.90
2019-03-04T08:22:52.882Z,3.55
2019-03-04T08:25:22.349Z,3.55
2019-03-04T08:27:51.918Z,3.30
2019-03-04T08:30:23.062Z,3.58
2019-03-04T08:32:52.752Z,3.37
2019-03-04T08:35:22.284Z,3.10
2019-03-04T08:37:51.882Z,3.85
2019-03-04T08:40:21.453Z,3.37
2019-03-04T08:42:50.933Z,2.72
2019-03-04T08:45:21.283Z,3.27
2019-03-04T08:47:50.838Z,3.00
2019-03-04T08:50:20.377Z,2.55
2019-03-04T08:52:49.940Z,2.52
2019-03-04T08:55:19.581Z,3.30
2019-03-04T08:57:49.208Z,2.75
2019-03-04T09:00:21.167Z,2.67
2019-03-04T09:02:50.812Z,2.40
2019-03-04T09:05:20.447Z,2.52
2019-03-04T09:07:50.023Z,2.75
2019-03-04T09:10:30.311Z,2.50
2019-03-04T09:12:59.963Z,2.70
2019-03-04T09:15:29.580Z,2.67
2019-03-04T09:17:59.258Z,2.37
2019-03-04T09:20:29.000Z,2.35
2019-03-04T09:22:58.601Z,2.20
2019-03-04T09:25:34.181Z,2.08
2019-03-04T09:28:03.818Z,2.05
2019-03-04T09:30:33.320Z,2.37
2019-03-04T09:33:03.891Z,2.10
2019-03-04T09:35:33.402Z,1.80
2019-03-04T09:38:02.960Z,1.92
2019-03-04T09:40:32.561Z,1.75
2019-03-04T09:43:02.137Z,1.57
2019-03-04T09:45:38.651Z,1.82
2019-03-04T09:48:03.069Z,1.60
2019-03-04T09:50:32.801Z,1.60
2019-03-04T09:53:02.296Z,1.70
2019-03-04T09:55:32.029Z,1.25
2019-03-04T09:58:01.576Z,1.30
2019-03-04T10:01:04.560Z,1.60
2019-03-04T10:04:13.879Z,1.60
2019-03-04T10:07:28.028Z,1.52
2019-03-04T10:10:53.899Z,1.40
2019-03-04T10:13:49.197Z,1.47
2019-03-04T10:16:49.235Z,1.20
2019-03-04T10:19:57.207Z,1.12
2019-03-04T10:23:16.463Z,1.22
2019-03-04T10:26:23.998Z,1.07
2019-03-04T10:29:19.163Z,1.35
2019-03-04T10:32:47.820Z,1.25
2019-03-04T10:35:42.621Z,1.60
2019-03-04T10:38:51.722Z,0.80
2019-03-04T10:41:56.093Z,0.90
2019-03-04T10:45:12.535Z,1.10
2019-03-04T10:47:42.095Z,1.10
2019-03-04T10:50:11.771Z,0.90
2019-03-04T10:52:41.351Z,1.27
2019-03-04T10:55:11.999Z,1.15
2019-03-04T10:57:41.629Z,1.00
2019-03-04T11:00:17.197Z,0.70
2019-03-04T11:02:46.801Z,1.25
2019-03-04T11:05:16.422Z,1.10
2019-03-04T11:07:45.927Z,1.10
2019-03-04T11:10:15.576Z,1.32
2019-03-04T11:12:45.109Z,1.07
2019-03-04T11:15:20.247Z,1.07
2019-03-04T11:17:49.784Z,0.90
2019-03-04T11:20:19.413Z,1.02
2019-03-04T11:22:48.971Z,1.17
2019-03-04T11:25:19.523Z,1.07
2019-03-04T11:27:49.234Z,1.27
2019-03-04T11:30:20.775Z,1.20
2019-03-04T11:32:50.275Z,1.20
2019-03-04T11:35:19.751Z,1.00
2019-03-04T11:37:49.335Z,1.40
2019-03-04T11:40:29.766Z,1.20
2019-03-04T11:42:59.448Z,1.37
2019-03-04T11:45:29.027Z,0.93
2019-03-04T11:47:58.771Z,1.32
2019-03-04T11:50:28.260Z,1.00
2019-03-04T11:52:57.863Z,1.10
2019-03-04T11:55:28.007Z,1.22
2019-03-04T11:57:57.539Z,1.30
2019-03-04T12:00:50.572Z,1.17
2019-03-04T12:03:20.105Z,0.90
2019-03-04T12:05:49.602Z,1.15
2019-03-04T12:08:19.155Z,1.05
2019-03-04T12:10:48.756Z,1.00
2019-03-04T12:13:18.259Z,1.02
2019-03-04T12:15:48.551Z,1.10
2019-03-04T12:18:18.057Z,1.00
2019-03-04T12:20:47.690Z,0.90
2019-03-04T12:23:17.468Z,1.00
2019-03-04T12:25:47.091Z,1.10
2019-03-04T12:28:17.932Z,0.80
2019-03-04T12:30:47.570Z,1.05
2019-03-04T12:33:17.151Z,0.93
2019-03-04T12:35:46.818Z,0.70
2019-03-04T12:38:16.498Z,0.62
2019-03-04T12:40:46.086Z,0.80
2019-03-04T12:43:15.689Z,0.90
2019-03-04T12:45:45.316Z,0.82
2019-03-04T12:48:14.874Z,0.80
2019-03-04T12:50:44.438Z,0.90
2019-03-04T12:53:13.991Z,0.60
2019-03-04T12:55:43.575Z,0.50
2019-03-04T12:58:13.188Z,0.72
2019-03-04T13:00:43.141Z,0.70
2019-03-04T13:03:21.409Z,0.70
2019-03-04T13:05:51.102Z,0.50
2019-03-04T13:08:20.630Z,0.70
2019-03-04T13:10:50.305Z,0.82
2019-03-04T13:13:19.811Z,0.60
2019-03-04T13:15:50.950Z,0.90
2019-03-04T13:18:20.466Z,0.75
2019-03-04T13:20:50.127Z,1.20
2019-03-04T13:23:19.623Z,1.05
2019-03-04T13:25:49.207Z,0.90
2019-03-04T13:28:18.699Z,0.95
2019-03-04T13:30:48.378Z,0.98
2019-03-04T13:33:17.844Z,1.12
2019-03-04T13:35:47.352Z,1.00
2019-03-04T13:38:16.945Z,0.88
2019-03-04T13:40:46.532Z,1.00
2019-03-04T13:43:16.024Z,0.90
2019-03-04T13:45:45.747Z,0.65
2019-03-04T13:48:15.230Z,1.00
2019-03-04T13:50:45.027Z,0.85
2019-03-04T13:53:14.631Z,1.05
2019-03-04T13:55:44.224Z,1.40
2019-03-04T13:58:13.709Z,1.82
2019-03-04T14:00:43.526Z,1.92
2019-03-04T14:03:14.231Z,1.37
2019-03-04T14:05:44.347Z,1.50
2019-03-04T14:08:14.225Z,1.60
2019-03-04T14:10:43.876Z,1.40
2019-03-04T14:13:14.006Z,1.47
2019-03-04T14:15:43.683Z,1.60
2019-03-04T14:18:13.272Z,1.45
2019-03-04T14:20:43.723Z,1.20
2019-03-04T14:23:13.250Z,1.25
2019-03-04T14:25:42.891Z,1.20
2019-03-04T14:28:12.526Z,1.20
2019-03-04T14:30:42.099Z,1.00
2019-03-04T14:33:11.759Z,1.52
2019-03-04T14:35:41.292Z,1.02
2019-03-04T14:38:10.984Z,1.30
2019-03-04T14:40:40.789Z,1.10
2019-03-04T14:43:10.428Z,1.20
2019-03-04T14:45:40.010Z,1.20
2019-03-04T14:48:09.618Z,1.25
2019-03-04T14:50:39.146Z,1.10
2019-03-04T14:53:08.847Z,1.07
2019-03-04T14:55:38.396Z,1.00
2019-03-04T14:58:07.980Z,1.00
2019-03-04T15:00:39.707Z,1.10
2019-03-04T15:03:19.144Z,1.10
2019-03-04T15:05:40.804Z,1.07
2019-03-04T15:08:10.375Z,0.72
2019-03-04T15:10:40.069Z,0.78
2019-03-04T15:13:10.150Z,0.70
2019-03-04T15:15:40.734Z,1.05
2019-03-04T15:18:10.341Z,1.12
2019-03-04T15:20:40.164Z,0.80
2019-03-04T15:23:09.716Z,0.90
2019-03-04T15:25:39.711Z,1.20
2019-03-04T15:28:11.193Z,0.90
2019-03-04T15:30:41.391Z,0.90
2019-03-04T15:33:17.917Z,0.90
2019-03-04T15:35:42.378Z,0.90
2019-03-04T15:38:11.924Z,0.80
2019-03-04T15:40:41.496Z,0.70
2019-03-04T15:43:11.219Z,0.80
2019-03-04T15:45:44.217Z,0.90
2019-03-04T15:48:14.070Z,0.80
2019-03-04T15:50:43.725Z,0.72
2019-03-04T15:53:13.399Z,0.75
2019-03-04T15:55:44.030Z,0.42
2019-03-04T15:58:14.688Z,0.80
2019-03-04T16:00:44.393Z,0.75
2019-03-04T16:03:14.011Z,0.70
2019-03-04T16:05:43.747Z,0.75
2019-03-04T16:08:13.646Z,0.70
2019-03-04T16:10:44.150Z,0.88
2019-03-04T16:13:14.160Z,0.75
2019-03-04T16:15:44.991Z,0.60
2019-03-04T16:18:14.651Z,0.70
2019-03-04T16:20:44.285Z,1.00
2019-03-04T16:23:16.078Z,0.80
2019-03-04T16:25:45.717Z,0.95
2019-03-04T16:28:17.799Z,1.02
2019-03-04T16:30:49.601Z,1.02
2019-03-04T16:33:19.461Z,1.02
2019-03-04T16:35:49.440Z,1.05
2019-03-04T16:38:19.007Z,1.10
2019-03-04T16:40:48.723Z,0.70
2019-03-04T16:43:18.289Z,0.85
2019-03-04T16:45:47.784Z,1.17
2019-03-04T16:48:17.413Z,1.07
2019-03-04T16:50:47.056Z,0.90
2019-03-04T16:53:16.986Z,0.80
2019-03-04T16:55:46.504Z,0.80
2019-03-04T16:58:16.104Z,0.90
2019-03-04T17:00:46.933Z,0.93
2019-03-04T17:03:16.748Z,0.75
2019-03-04T17:05:46.259Z,0.80
2019-03-04T17:08:15.829Z,0.95
2019-03-04T17:10:46.293Z,0.85
2019-03-04T17:13:15.809Z,0.78
2019-03-04T17:15:45.390Z,0.80
2019-03-04T17:18:14.960Z,0.80
2019-03-04T17:20:44.481Z,0.80
2019-03-04T17:23:14.156Z,0.62
2019-03-04T17:25:43.735Z,0.90
2019-03-04T17:28:13.241Z,0.82
2019-03-04T17:30:43.025Z,1.10
2019-03-04T17:33:13.161Z,0.90
2019-03-04T17:35:42.707Z,0.98
2019-03-04T17:38:12.963Z,1.10
2019-03-04T17:40:42.589Z,0.70
2019-03-04T17:43:12.210Z,0.75
2019-03-04T17:45:42.021Z,0.90
2019-03-04T17:48:11.609Z,0.90
2019-03-04T17:50:41.193Z,0.68
2019-03-04T17:53:10.873Z,1.20
2019-03-04T17:55:40.649Z,1.00
2019-03-04T17:58:10.322Z,0.90
2019-03-04T18:00:41.824Z,1.00
2019-03-04T18:03:11.458Z,0.95
2019-03-04T18:05:43.336Z,0.90
2019-03-04T18:08:13.821Z,1.10
2019-03-04T18:10:43.431Z,1.05
2019-03-04T18:13:13.664Z,1.40
2019-03-04T18:15:43.485Z,1.02
2019-03-04T18:18:13.812Z,1.20
2019-03-04T18:20:43.642Z,1.40
2019-03-04T18:23:13.237Z,1.37
2019-03-04T18:25:49.110Z,1.32
2019-03-04T18:28:28.655Z,1.77
2019-03-04T18:31:12.025Z,1.30
2019-03-04T18:34:19.973Z,1.75
2019-03-04T18:37:03.093Z,1.30
2019-03-04T18:40:28.773Z,1.62
2019-03-04T18:43:30.462Z,1.62
2019-03-04T18:46:46.747Z,1.82
2019-03-04T18:49:16.721Z,1.90
2019-03-04T18:51:46.239Z,1.87
2019-03-04T18:54:17.592Z,2.15
2019-03-04T18:56:47.145Z,1.75
2019-03-04T18:59:16.765Z,1.40
2019-03-04T19:01:46.466Z,1.65
2019-03-04T19:04:16.046Z,1.80
2019-03-04T19:06:45.644Z,2.62
2019-03-04T19:09:15.516Z,1.90
2019-03-04T19:11:45.176Z,1.95
2019-03-04T19:14:14.681Z,2.12
2019-03-04T19:16:44.207Z,2.00
2019-03-04T19:19:16.137Z,1.67
2019-03-04T19:21:45.630Z,1.87
2019-03-04T19:24:15.229Z,1.98
2019-03-04T19:26:44.810Z,2.00
2019-03-04T19:29:14.504Z,1.85
2019-03-04T19:31:44.131Z,2.02
2019-03-04T19:34:13.740Z,1.77
2019-03-04T19:36:43.276Z,1.90
2019-03-04T19:39:12.823Z,2.22
2019-03-04T19:41:42.401Z,1.87
2019-03-04T19:44:12.123Z,1.98
2019-03-04T19:46:41.839Z,1.80
2019-03-04T19:49:11.530Z,1.77
2019-03-04T19:51:41.061Z,1.90
2019-03-04T19:54:10.672Z,2.12
2019-03-04T19:56:40.317Z,2.15
2019-03-04T19:59:09.944Z,1.70
2019-03-04T20:01:42.754Z,1.82
2019-03-04T20:04:12.499Z,1.90
2019-03-04T20:06:42.001Z,2.00
2019-03-04T20:09:11.833Z,2.40
2019-03-04T20:11:41.591Z,1.80
2019-03-04T20:14:11.327Z,2.20
2019-03-04T20:16:40.967Z,1.98
2019-03-04T20:19:10.740Z,1.80
2019-03-04T20:21:40.459Z,2.10
2019-03-04T20:24:10.048Z,1.82
2019-03-04T20:26:39.648Z,1.80
2019-03-04T20:29:09.189Z,1.90
2019-03-04T20:31:38.670Z,1.62
2019-03-04T20:34:08.208Z,2.22
2019-03-04T20:36:37.747Z,1.70
2019-03-04T20:39:10.000Z,2.10
2019-03-04T20:41:39.670Z,1.75
2019-03-04T20:44:12.099Z,1.87
2019-03-04T20:46:41.577Z,2.12
2019-03-04T20:49:11.307Z,1.75
2019-03-04T20:51:40.897Z,1.92
2019-03-04T20:54:10.374Z,1.80
2019-03-04T20:56:39.977Z,1.55
2019-03-04T20:59:09.710Z,1.67
2019-03-04T21:01:39.311Z,1.50
2019-03-04T21:04:08.861Z,1.80
2019-03-04T21:06:38.529Z,1.72
2019-03-04T21:09:10.297Z,1.70
2019-03-04T21:11:39.890Z,1.67
2019-03-04T21:14:09.417Z,1.98
2019-03-04T21:16:38.989Z,1.82
2019-03-04T21:19:08.787Z,1.80
2019-03-04T21:21:39.741Z,1.72
2019-03-04T21:24:09.282Z,1.72
2019-03-04T21:26:42.277Z,1.90
2019-03-04T21:29:52.937Z,1.60
2019-03-04T21:32:47.275Z,1.75
2019-03-04T21:36:14.398Z,1.72
2019-03-04T21:38:43.664Z,1.42
2019-03-04T21:42:00.312Z,1.70
2019-03-04T21:45:14.080Z,1.62
2019-03-04T21:47:51.118Z,2.20
2019-03-04T21:50:25.535Z,1.60
2019-03-04T21:53:16.288Z,1.37
2019-03-04T21:56:07.906Z,1.67
2019-03-04T21:58:37.384Z,1.25
2019-03-04T22:01:22.920Z,1.42
2019-03-04T22:03:52.678Z,1.30
2019-03-04T22:06:22.268Z,1.35
2019-03-04T22:08:51.788Z,1.15
2019-03-04T22:11:21.274Z,1.20
2019-03-04T22:13:50.884Z,1.10
2019-03-04T22:16:20.392Z,1.62
2019-03-04T22:18:49.897Z,1.40
2019-03-04T22:21:19.425Z,1.20
2019-03-04T22:23:48.942Z,1.25
2019-03-04T22:26:18.570Z,1.25
2019-03-04T22:28:48.123Z,1.10
2019-03-04T22:31:17.648Z,0.95
2019-03-04T22:33:47.234Z,1.30
2019-03-04T22:36:16.705Z,0.88
2019-03-04T22:38:46.277Z,1.00
2019-03-04T22:41:15.835Z,1.02
2019-03-04T22:43:45.280Z,1.20
2019-03-04T22:46:14.752Z,1.00
2019-03-04T22:48:44.406Z,0.90
2019-03-04T22:51:13.853Z,1.22
2019-03-04T22:53:43.327Z,0.95
2019-03-04T22:56:12.802Z,1.10
2019-03-04T22:58:42.357Z,1.00
2019-03-04T23:01:53.982Z,0.98
2019-03-04T23:04:31.215Z,1.20
2019-03-04T23:07:12.121Z,0.90
2019-03-04T23:10:01.909Z,1.12
2019-03-04T23:12:40.643Z,0.80
2019-03-04T23:15:13.067Z,1.10
2019-03-04T23:17:42.575Z,0.98
2019-03-04T23:20:12.062Z,1.02
2019-03-04T23:22:41.667Z,1.12
2019-03-04T23:25:12.117Z,1.52
2019-03-04T23:27:41.579Z,1.32
2019-03-04T23:30:13.711Z,1.37
2019-03-04T23:32:43.308Z,1.62
2019-03-04T23:35:12.866Z,2.25
2019-03-04T23:37:42.466Z,1.22
2019-03-04T23:40:12.405Z,1.75
2019-03-04T23:42:42.287Z,2.05
2019-03-04T23:45:14.604Z,1.60
2019-03-04T23:47:44.055Z,1.45
2019-03-04T23:50:16.635Z,1.30
2019-03-04T23:52:46.237Z,1.95
2019-03-04T23:55:16.207Z,1.60
2019-03-04T23:57:45.742Z,1.60
